Navitec — VRMR3 — position and weather

sailwx.info

Track history (hours):
 
Tides and Currents Weather Stations Pressure Air Temp Water Temp Dewpoint Dewpoint Depression Visibility Wind Speed Wind Dir Waves Ship Positions

Navitec

Last reported at 2018-Jun-18 22:06 UTC. Time now 2018-Jun-24 11:16 UTC.
Position S 27°42' E 153°52'.

Length 199 m; draft 10.6 m.

Type: Cargo ship. MMSI: 477219500.

Date/timePositionNaut miles runAvg speedWind from/ knotsBaromVisibWave heightAir tempDewpointWater temp
2018-Jun-18 22:06S 27°42' E 153°52'29311.4
2018-Jun-17 20:29S 32°28' E 152°38'812.7
2018-Jun-17 19:50S 32°35' E 152°32'412.5
2018-Jun-17 19:30S 32°39' E 152°30'612.1
2018-Jun-17 19:00S 32°44' E 152°26'612.2
2018-Jun-17 18:31S 32°49' E 152°22'611.8
2018-Jun-17 18:01S 32°54' E 152°18'611.9
2018-Jun-17 17:30S 32°59' E 152°14'611.9
2018-Jun-17 17:00S 33°04' E 152°10'611.9
2018-Jun-17 16:31S 33°09' E 152°06'611.6
2018-Jun-17 16:00S 33°14' E 152°03'2911.7
2018-Jun-17 13:29S 33°38' E 151°44'612.1
2018-Jun-17 13:00S 33°44' E 151°40'611.9
2018-Jun-17 12:31S 33°49' E 151°37'611.6
2018-Jun-17 12:00S 33°54' E 151°34'611.7
2018-Jun-17 11:31S 33°60' E 151°32'611.5
2018-Jun-17 11:01S 34°05' E 151°29'611.5
2018-Jun-17 10:30S 34°10' E 151°27'40711.2
2018-Jun-15 22:19S 39°59' E 147°04'3 8.7
2018-Jun-15 22:00S 40°02' E 147°03'4 9.1
2018-Jun-15 21:30S 40°06' E 147°01'5 9.4
2018-Jun-15 21:00S 40°11' E 146°60'5 9.2
2018-Jun-15 20:31S 40°15' E 146°58'5 9.1
2018-Jun-15 20:01S 40°20' E 146°57'5 9.0
2018-Jun-15 19:29S 40°24' E 146°56'5 9.5
2018-Jun-15 19:01S 40°29' E 146°54'5 9.4
2018-Jun-15 18:31S 40°33' E 146°53'5 9.8
2018-Jun-15 18:00S 40°38' E 146°52'5 9.9
2018-Jun-15 17:31S 40°43' E 146°50'510.1
2018-Jun-15 17:01S 40°48' E 146°48'510.2
2018-Jun-15 16:30S 40°53' E 146°47'510.2
2018-Jun-15 16:01S 40°58' E 146°45'5 9.2
2018-Jun-15 15:31S 41°02' E 146°45'4 8.4
2018-Jun-15 15:00S 41°06' E 146°48'4 7.5
2018-Jun-15 14:30S 41°09' E 146°52'3 6.9
2018-Jun-15 14:00S 41°10' E 146°56'0 0.3
2018-Jun-15 13:29S 41°10' E 146°56'0 0.0
2018-Jun-15 12:59S 41°10' E 146°56'0 0.1
2018-Jun-15 12:29S 41°10' E 146°56'0 0.0
2018-Jun-15 11:58S 41°10' E 146°56'0 0.1
2018-Jun-15 11:28S 41°10' E 146°56'0 0.0
2018-Jun-15 10:58S 41°10' E 146°56'0 0.0
2018-Jun-15 10:28S 41°10' E 146°56'0 0.1
2018-Jun-15 09:58S 41°10' E 146°56'0 0.1
2018-Jun-15 09:28S 41°10' E 146°56'0 0.0
2018-Jun-15 08:58S 41°10' E 146°56'0 0.0
2018-Jun-15 08:28S 41°10' E 146°56'0 0.1
2018-Jun-15 07:58S 41°10' E 146°56'0 0.0
2018-Jun-15 07:28S 41°10' E 146°56'0 0.1
2018-Jun-15 06:58S 41°10' E 146°56'0 0.0
2018-Jun-15 06:25S 41°10' E 146°56'0 0.0
2018-Jun-15 05:58S 41°10' E 146°56'0 0.0
2018-Jun-15 05:28S 41°10' E 146°56'0 0.1
2018-Jun-15 04:58S 41°10' E 146°56'0 0.1
2018-Jun-15 04:28S 41°10' E 146°56'0 0.1
2018-Jun-15 03:58S 41°10' E 146°56'0 0.1
2018-Jun-15 03:28S 41°10' E 146°56'0 0.0
2018-Jun-15 02:58S 41°10' E 146°56'0 0.0
2018-Jun-15 02:28S 41°10' E 146°56'0 0.0
2018-Jun-15 01:58S 41°10' E 146°56'0 0.0
2018-Jun-15 01:28S 41°10' E 146°56'0 0.0
2018-Jun-15 00:58S 41°10' E 146°56'0 0.1
2018-Jun-15 00:28S 41°10' E 146°56'0 0.1
2018-Jun-14 23:58S 41°10' E 146°56'0 0.0
2018-Jun-14 23:28S 41°10' E 146°56'0 0.1
2018-Jun-14 22:58S 41°10' E 146°56'0 0.0
2018-Jun-14 22:28S 41°10' E 146°56'0 0.0
2018-Jun-14 21:58S 41°10' E 146°56'0 0.0
2018-Jun-14 21:28S 41°10' E 146°56'0 0.0
2018-Jun-14 20:58S 41°10' E 146°56'0 0.0
2018-Jun-14 20:28S 41°10' E 146°56'0 0.0
2018-Jun-14 19:58S 41°10' E 146°56'0 0.0
2018-Jun-14 19:28S 41°10' E 146°56'0 0.0
2018-Jun-14 18:58S 41°10' E 146°56'0 0.0
2018-Jun-14 18:28S 41°10' E 146°56'0 0.0
2018-Jun-14 17:58S 41°10' E 146°56'0 0.0
2018-Jun-14 17:28S 41°10' E 146°56'0 0.0
2018-Jun-14 16:58S 41°10' E 146°56'0 0.0
2018-Jun-14 16:28S 41°10' E 146°56'0 0.0
2018-Jun-14 15:58S 41°10' E 146°56'0 0.0
2018-Jun-14 15:28S 41°10' E 146°56'0 0.0
2018-Jun-14 14:58S 41°10' E 146°56'0 0.0
2018-Jun-14 14:28S 41°10' E 146°56'0 0.0
2018-Jun-14 13:58S 41°10' E 146°56'0 0.0
2018-Jun-14 13:28S 41°10' E 146°56'0 0.0
2018-Jun-14 12:58S 41°10' E 146°56'0 0.0
2018-Jun-14 12:28S 41°10' E 146°56'0 0.0
2018-Jun-14 11:58S 41°10' E 146°56'0 0.0
2018-Jun-14 11:28S 41°10' E 146°56'0 0.0
2018-Jun-14 10:58S 41°10' E 146°56'0 0.0
2018-Jun-14 10:28S 41°10' E 146°56'0 0.0
2018-Jun-14 09:58S 41°10' E 146°56'0 0.0
2018-Jun-14 09:28S 41°10' E 146°56'0 0.0
2018-Jun-14 08:58S 41°10' E 146°56'0 0.0
2018-Jun-14 08:28S 41°10' E 146°56'0 0.0
2018-Jun-14 07:58S 41°10' E 146°56'0 0.0
2018-Jun-14 07:28S 41°10' E 146°56'0 0.0
2018-Jun-14 06:58S 41°10' E 146°56'0 0.0
2018-Jun-14 06:28S 41°10' E 146°56'0 0.0
2018-Jun-14 05:58S 41°10' E 146°56'0 0.0
2018-Jun-14 05:28S 41°10' E 146°56'0 0.0
2018-Jun-14 04:58S 41°10' E 146°56'0 0.0
2018-Jun-14 04:28S 41°10' E 146°56'0 0.0
2018-Jun-14 03:58S 41°10' E 146°56'0 0.0
2018-Jun-14 03:28S 41°10' E 146°56'0 0.0
2018-Jun-14 02:58S 41°10' E 146°56'0 0.0
2018-Jun-14 02:28S 41°10' E 146°56'0 0.0
2018-Jun-14 01:58S 41°10' E 146°56'0 0.1
2018-Jun-14 01:28S 41°10' E 146°56'0 0.0
2018-Jun-14 00:55S 41°10' E 146°56'0 0.0
2018-Jun-14 00:28S 41°10' E 146°56'0 0.0
2018-Jun-13 23:58S 41°10' E 146°56'0 0.0
2018-Jun-13 23:28S 41°10' E 146°56'0 0.0
2018-Jun-13 22:58S 41°10' E 146°56'0 0.0
2018-Jun-13 22:28S 41°10' E 146°56'0 0.0
2018-Jun-13 21:58S 41°10' E 146°56'0 0.0
2018-Jun-13 21:28S 41°10' E 146°56'0 0.0
2018-Jun-13 20:58S 41°10' E 146°56'0 0.0
2018-Jun-13 20:28S 41°10' E 146°56'0 0.0
2018-Jun-13 19:58S 41°10' E 146°56'0 0.0
2018-Jun-13 19:28S 41°10' E 146°56'0 0.0
2018-Jun-13 19:01S 41°10' E 146°56'0 0.0
2018-Jun-13 18:28S 41°10' E 146°56'0 0.0
2018-Jun-13 18:00S 41°10' E 146°56'0 0.0
2018-Jun-13 17:27S 41°10' E 146°56'0 0.0
2018-Jun-13 17:00S 41°10' E 146°56'0 0.0
2018-Jun-13 16:27S 41°10' E 146°56'0 0.0
2018-Jun-13 15:57S 41°10' E 146°56'0 0.0
2018-Jun-13 15:30S 41°10' E 146°56'0 0.0
2018-Jun-13 14:57S 41°10' E 146°56'0 0.0
2018-Jun-13 14:27S 41°10' E 146°56'0 0.0
2018-Jun-13 13:45S 41°10' E 146°56'0 0.0
2018-Jun-13 13:27S 41°10' E 146°56'0 0.0
2018-Jun-13 13:00S 41°10' E 146°56'0 0.0
2018-Jun-13 12:30S 41°10' E 146°56'0 0.1
2018-Jun-13 12:00S 41°10' E 146°56'0 0.0
2018-Jun-13 11:30S 41°10' E 146°56'0 0.0
2018-Jun-13 11:00S 41°10' E 146°56'0 0.0
2018-Jun-13 10:30S 41°10' E 146°56'0 0.0
2018-Jun-13 10:00S 41°10' E 146°56'0 0.0
2018-Jun-13 09:30S 41°10' E 146°56'0 0.0
2018-Jun-13 09:00S 41°10' E 146°56'0 0.0
2018-Jun-13 08:30S 41°10' E 146°56'0 0.0
2018-Jun-13 08:00S 41°10' E 146°56'0 0.0
2018-Jun-13 07:30S 41°10' E 146°56'0 0.0
2018-Jun-13 07:00S 41°10' E 146°56'0 0.0
2018-Jun-13 06:30S 41°10' E 146°56'0 0.0
2018-Jun-13 06:00S 41°10' E 146°56'0 0.0
2018-Jun-13 05:30S 41°10' E 146°56'0 0.0
2018-Jun-13 05:00S 41°10' E 146°56'0 0.0
2018-Jun-13 04:30S 41°10' E 146°56'0 0.0
2018-Jun-13 04:00S 41°10' E 146°56'0 0.0
2018-Jun-13 03:27S 41°10' E 146°56'0 0.0
2018-Jun-13 03:00S 41°10' E 146°56'0 0.0
2018-Jun-13 02:27S 41°10' E 146°56'0 0.0
2018-Jun-13 02:00S 41°10' E 146°56'0 0.0
2018-Jun-13 01:30S 41°10' E 146°56'0 0.0
2018-Jun-13 01:00S 41°10' E 146°56'0 0.0
2018-Jun-13 00:30S 41°10' E 146°56'0 0.0
2018-Jun-13 00:00S 41°10' E 146°56'0 0.1
2018-Jun-12 23:30S 41°10' E 146°56'0 0.0
2018-Jun-12 22:57S 41°10' E 146°56'0 0.0
2018-Jun-12 22:30S 41°10' E 146°56'0 0.0
2018-Jun-12 22:00S 41°10' E 146°56'0 0.0
2018-Jun-12 21:30S 41°10' E 146°56'0 0.0
2018-Jun-12 21:00S 41°10' E 146°56'0 0.0
2018-Jun-12 20:27S 41°10' E 146°56'0 0.0
2018-Jun-12 20:00S 41°10' E 146°56'0 0.0
2018-Jun-12 19:27S 41°10' E 146°56'0 0.0
2018-Jun-12 18:57S 41°10' E 146°56'0 0.0
2018-Jun-12 18:30S 41°10' E 146°56'0 0.0
2018-Jun-12 17:57S 41°10' E 146°56'0 0.0
2018-Jun-12 17:30S 41°10' E 146°56'0 0.0
2018-Jun-12 16:57S 41°10' E 146°56'0 0.0
2018-Jun-12 16:30S 41°10' E 146°56'0 0.0
2018-Jun-12 16:00S 41°10' E 146°56'0 0.0
2018-Jun-12 15:30S 41°10' E 146°56'0 0.0
2018-Jun-12 15:00S 41°10' E 146°56'0 0.0
2018-Jun-12 14:30S 41°10' E 146°56'0 0.0
2018-Jun-12 13:57S 41°10' E 146°56'0 0.0
2018-Jun-12 13:30S 41°10' E 146°56'0 0.0
2018-Jun-12 12:57S 41°10' E 146°56'0 0.0
2018-Jun-12 12:30S 41°10' E 146°56'0 0.0
2018-Jun-12 12:00S 41°10' E 146°56'0 0.1
2018-Jun-12 11:30S 41°10' E 146°56'0 0.0
2018-Jun-12 11:00S 41°10' E 146°56'0 0.0
2018-Jun-12 10:30S 41°10' E 146°56'0 0.0
2018-Jun-12 10:00S 41°10' E 146°56'0 0.0
2018-Jun-12 09:30S 41°10' E 146°56'0 0.0
2018-Jun-12 09:00S 41°10' E 146°56'0 0.0
2018-Jun-12 08:30S 41°10' E 146°56'0 0.0
2018-Jun-12 08:00S 41°10' E 146°56'0 0.0
2018-Jun-12 07:30S 41°10' E 146°56'0 0.0
2018-Jun-12 07:00S 41°10' E 146°56'0 0.0
2018-Jun-12 06:30S 41°10' E 146°56'0 0.0
2018-Jun-12 06:00S 41°10' E 146°56'0 0.0
2018-Jun-12 05:30S 41°10' E 146°56'0 0.0
2018-Jun-12 05:00S 41°10' E 146°56'0 0.0
2018-Jun-12 04:30S 41°10' E 146°56'0 0.0
2018-Jun-12 04:00S 41°10' E 146°56'0 0.0
2018-Jun-12 03:30S 41°10' E 146°56'0 0.0
2018-Jun-12 03:00S 41°10' E 146°56'0 0.0
2018-Jun-12 02:30S 41°10' E 146°56'0 0.0
2018-Jun-12 02:00S 41°10' E 146°56'0 0.0
2018-Jun-12 01:30S 41°10' E 146°56'0 0.0
2018-Jun-12 01:00S 41°10' E 146°56'0 0.0
2018-Jun-12 00:30S 41°10' E 146°56'0 0.0
2018-Jun-12 00:00S 41°10' E 146°56'0 0.0
2018-Jun-11 23:30S 41°10' E 146°56'0 0.0
2018-Jun-11 23:00S 41°10' E 146°56'0 0.0
2018-Jun-11 22:30S 41°10' E 146°56'0 0.0
2018-Jun-11 22:00S 41°10' E 146°56'0 0.0
2018-Jun-11 21:30S 41°10' E 146°56'0 0.0
2018-Jun-11 21:00S 41°10' E 146°56'0 0.0
2018-Jun-11 20:30S 41°10' E 146°56'0 0.4
2018-Jun-11 20:00S 41°10' E 146°56'3 6.2
2018-Jun-11 19:30S 41°08' E 146°52'4 8.9
2018-Jun-11 19:00S 41°05' E 146°48'510.6
2018-Jun-11 18:30S 41°01' E 146°44'5 9.6
2018-Jun-11 18:00S 40°56' E 146°43'510.6
2018-Jun-11 17:30S 40°51' E 146°42'612.0
2018-Jun-11 17:00S 40°45' E 146°41'612.0
2018-Jun-11 16:30S 40°39' E 146°40'612.1
2018-Jun-11 16:00S 40°33' E 146°38'612.4
2018-Jun-11 15:30S 40°27' E 146°37'611.6
2018-Jun-11 15:00S 40°21' E 146°35'611.1
2018-Jun-11 14:30S 40°16' E 146°34'611.2
2018-Jun-11 14:00S 40°10' E 146°34'611.2
2018-Jun-11 13:30S 40°04' E 146°33'611.1
2018-Jun-11 13:00S 39°59' E 146°33'8 7.2
2018-Jun-11 11:49S 39°55' E 146°42'3 9.6
2018-Jun-11 11:30S 39°54' E 146°46'6 9.6
2018-Jun-11 10:51S 39°54' E 146°54'7 9.8
2018-Jun-11 10:08S 39°54' E 147°04'1 8.7
2018-Jun-11 10:00S 39°54' E 147°05'10911.8
2018-Jun-11 00:44S 38°35' E 148°43'312.4
2018-Jun-11 00:30S 38°33' E 148°46'812.4
2018-Jun-10 23:52S 38°28' E 148°53'512.2
2018-Jun-10 23:29S 38°25' E 148°57'612.3
2018-Jun-10 23:00S 38°20' E 149°03'612.3
2018-Jun-10 22:29S 38°16' E 149°09'612.6
2018-Jun-10 22:00S 38°11' E 149°14'1512.7
2018-Jun-10 20:51S 38°01' E 149°28'24611.6
2018-Jun-09 23:35S 34°14' E 151°24'112.2
2018-Jun-09 23:30S 34°13' E 151°25'611.8
2018-Jun-09 23:00S 34°08' E 151°27'611.6
2018-Jun-09 22:30S 34°02' E 151°30'611.5
2018-Jun-09 22:00S 33°57' E 151°32'611.7
2018-Jun-09 21:30S 33°51' E 151°35'612.2
2018-Jun-09 21:00S 33°46' E 151°38'612.4
2018-Jun-09 20:30S 33°41' E 151°42'612.2
2018-Jun-09 20:00S 33°36' E 151°46'612.5
2018-Jun-09 19:30S 33°30' E 151°50'1712.4
2018-Jun-09 18:06S 33°16' E 152°01'112.5
2018-Jun-09 18:00S 33°15' E 152°02'612.4
2018-Jun-09 17:30S 33°10' E 152°06'612.4
2018-Jun-09 17:00S 33°04' E 152°10'612.4
2018-Jun-09 16:30S 32°59' E 152°14'611.4
2018-Jun-09 16:00S 32°54' E 152°17'1111.3
2018-Jun-09 15:00S 32°45' E 152°25'611.7
2018-Jun-09 14:30S 32°40' E 152°28'611.8
2018-Jun-09 14:00S 32°35' E 152°32'611.7
2018-Jun-09 13:30S 32°30' E 152°36'611.6
2018-Jun-09 13:00S 32°25' E 152°40'711.7
2018-Jun-09 12:23S 32°18' E 152°43'411.9
2018-Jun-09 12:00S 32°14' E 152°45'712.0
2018-Jun-09 11:25S 32°07' E 152°47'  
Track history (hours):
 
Tides and Currents Weather Stations Pressure Air Temp Water Temp Dewpoint Dewpoint Depression Visibility Wind Speed Wind Dir Waves Ship Positions

Navitec

Last reported at 2018-Jun-18 22:06 UTC. Time now 2018-Jun-24 11:16 UTC.
Position S 27°42' E 153°52'.

Length 199 m; draft 10.6 m.

Type: Cargo ship. MMSI: 477219500.

Date/timePositionNaut miles runAvg speedWind from/ knotsBaromVisibWave heightAir tempDewpointWater temp
2018-Jun-18 22:06S 27°42' E 153°52'29311.4
2018-Jun-17 20:29S 32°28' E 152°38'812.7
2018-Jun-17 19:50S 32°35' E 152°32'412.5
2018-Jun-17 19:30S 32°39' E 152°30'612.1
2018-Jun-17 19:00S 32°44' E 152°26'612.2
2018-Jun-17 18:31S 32°49' E 152°22'611.8
2018-Jun-17 18:01S 32°54' E 152°18'611.9
2018-Jun-17 17:30S 32°59' E 152°14'611.9
2018-Jun-17 17:00S 33°04' E 152°10'611.9
2018-Jun-17 16:31S 33°09' E 152°06'611.6
2018-Jun-17 16:00S 33°14' E 152°03'2911.7
2018-Jun-17 13:29S 33°38' E 151°44'612.1
2018-Jun-17 13:00S 33°44' E 151°40'611.9
2018-Jun-17 12:31S 33°49' E 151°37'611.6
2018-Jun-17 12:00S 33°54' E 151°34'611.7
2018-Jun-17 11:31S 33°60' E 151°32'611.5
2018-Jun-17 11:01S 34°05' E 151°29'611.5
2018-Jun-17 10:30S 34°10' E 151°27'40711.2
2018-Jun-15 22:19S 39°59' E 147°04'3 8.7
2018-Jun-15 22:00S 40°02' E 147°03'4 9.1
2018-Jun-15 21:30S 40°06' E 147°01'5 9.4
2018-Jun-15 21:00S 40°11' E 146°60'5 9.2
2018-Jun-15 20:31S 40°15' E 146°58'5 9.1
2018-Jun-15 20:01S 40°20' E 146°57'5 9.0
2018-Jun-15 19:29S 40°24' E 146°56'5 9.5
2018-Jun-15 19:01S 40°29' E 146°54'5 9.4
2018-Jun-15 18:31S 40°33' E 146°53'5 9.8
2018-Jun-15 18:00S 40°38' E 146°52'5 9.9
2018-Jun-15 17:31S 40°43' E 146°50'510.1
2018-Jun-15 17:01S 40°48' E 146°48'510.2
2018-Jun-15 16:30S 40°53' E 146°47'510.2
2018-Jun-15 16:01S 40°58' E 146°45'5 9.2
2018-Jun-15 15:31S 41°02' E 146°45'4 8.4
2018-Jun-15 15:00S 41°06' E 146°48'4 7.5
2018-Jun-15 14:30S 41°09' E 146°52'3 6.9
2018-Jun-15 14:00S 41°10' E 146°56'0 0.3
2018-Jun-15 13:29S 41°10' E 146°56'0 0.0
2018-Jun-15 12:59S 41°10' E 146°56'0 0.1
2018-Jun-15 12:29S 41°10' E 146°56'0 0.0
2018-Jun-15 11:58S 41°10' E 146°56'0 0.1
2018-Jun-15 11:28S 41°10' E 146°56'0 0.0
2018-Jun-15 10:58S 41°10' E 146°56'0 0.0
2018-Jun-15 10:28S 41°10' E 146°56'0 0.1
2018-Jun-15 09:58S 41°10' E 146°56'0 0.1
2018-Jun-15 09:28S 41°10' E 146°56'0 0.0
2018-Jun-15 08:58S 41°10' E 146°56'0 0.0
2018-Jun-15 08:28S 41°10' E 146°56'0 0.1
2018-Jun-15 07:58S 41°10' E 146°56'0 0.0
2018-Jun-15 07:28S 41°10' E 146°56'0 0.1
2018-Jun-15 06:58S 41°10' E 146°56'0 0.0
2018-Jun-15 06:25S 41°10' E 146°56'0 0.0
2018-Jun-15 05:58S 41°10' E 146°56'0 0.0
2018-Jun-15 05:28S 41°10' E 146°56'0 0.1
2018-Jun-15 04:58S 41°10' E 146°56'0 0.1
2018-Jun-15 04:28S 41°10' E 146°56'0 0.1
2018-Jun-15 03:58S 41°10' E 146°56'0 0.1
2018-Jun-15 03:28S 41°10' E 146°56'0 0.0
2018-Jun-15 02:58S 41°10' E 146°56'0 0.0
2018-Jun-15 02:28S 41°10' E 146°56'0 0.0
2018-Jun-15 01:58S 41°10' E 146°56'0 0.0
2018-Jun-15 01:28S 41°10' E 146°56'0 0.0
2018-Jun-15 00:58S 41°10' E 146°56'0 0.1
2018-Jun-15 00:28S 41°10' E 146°56'0 0.1
2018-Jun-14 23:58S 41°10' E 146°56'0 0.0
2018-Jun-14 23:28S 41°10' E 146°56'0 0.1
2018-Jun-14 22:58S 41°10' E 146°56'0 0.0
2018-Jun-14 22:28S 41°10' E 146°56'0 0.0
2018-Jun-14 21:58S 41°10' E 146°56'0 0.0
2018-Jun-14 21:28S 41°10' E 146°56'0 0.0
2018-Jun-14 20:58S 41°10' E 146°56'0 0.0
2018-Jun-14 20:28S 41°10' E 146°56'0 0.0
2018-Jun-14 19:58S 41°10' E 146°56'0 0.0
2018-Jun-14 19:28S 41°10' E 146°56'0 0.0
2018-Jun-14 18:58S 41°10' E 146°56'0 0.0
2018-Jun-14 18:28S 41°10' E 146°56'0 0.0
2018-Jun-14 17:58S 41°10' E 146°56'0 0.0
2018-Jun-14 17:28S 41°10' E 146°56'0 0.0
2018-Jun-14 16:58S 41°10' E 146°56'0 0.0
2018-Jun-14 16:28S 41°10' E 146°56'0 0.0
2018-Jun-14 15:58S 41°10' E 146°56'0 0.0
2018-Jun-14 15:28S 41°10' E 146°56'0 0.0
2018-Jun-14 14:58S 41°10' E 146°56'0 0.0
2018-Jun-14 14:28S 41°10' E 146°56'0 0.0
2018-Jun-14 13:58S 41°10' E 146°56'0 0.0
2018-Jun-14 13:28S 41°10' E 146°56'0 0.0
2018-Jun-14 12:58S 41°10' E 146°56'0 0.0
2018-Jun-14 12:28S 41°10' E 146°56'0 0.0
2018-Jun-14 11:58S 41°10' E 146°56'0 0.0
2018-Jun-14 11:28S 41°10' E 146°56'0 0.0
2018-Jun-14 10:58S 41°10' E 146°56'0 0.0
2018-Jun-14 10:28S 41°10' E 146°56'0 0.0
2018-Jun-14 09:58S 41°10' E 146°56'0 0.0
2018-Jun-14 09:28S 41°10' E 146°56'0 0.0
2018-Jun-14 08:58S 41°10' E 146°56'0 0.0
2018-Jun-14 08:28S 41°10' E 146°56'0 0.0
2018-Jun-14 07:58S 41°10' E 146°56'0 0.0
2018-Jun-14 07:28S 41°10' E 146°56'0 0.0
2018-Jun-14 06:58S 41°10' E 146°56'0 0.0
2018-Jun-14 06:28S 41°10' E 146°56'0 0.0
2018-Jun-14 05:58S 41°10' E 146°56'0 0.0
2018-Jun-14 05:28S 41°10' E 146°56'0 0.0
2018-Jun-14 04:58S 41°10' E 146°56'0 0.0
2018-Jun-14 04:28S 41°10' E 146°56'0 0.0
2018-Jun-14 03:58S 41°10' E 146°56'0 0.0
2018-Jun-14 03:28S 41°10' E 146°56'0 0.0
2018-Jun-14 02:58S 41°10' E 146°56'0 0.0
2018-Jun-14 02:28S 41°10' E 146°56'0 0.0
2018-Jun-14 01:58S 41°10' E 146°56'0 0.1
2018-Jun-14 01:28S 41°10' E 146°56'0 0.0
2018-Jun-14 00:55S 41°10' E 146°56'0 0.0
2018-Jun-14 00:28S 41°10' E 146°56'0 0.0
2018-Jun-13 23:58S 41°10' E 146°56'0 0.0
2018-Jun-13 23:28S 41°10' E 146°56'0 0.0
2018-Jun-13 22:58S 41°10' E 146°56'0 0.0
2018-Jun-13 22:28S 41°10' E 146°56'0 0.0
2018-Jun-13 21:58S 41°10' E 146°56'0 0.0
2018-Jun-13 21:28S 41°10' E 146°56'0 0.0
2018-Jun-13 20:58S 41°10' E 146°56'0 0.0
2018-Jun-13 20:28S 41°10' E 146°56'0 0.0
2018-Jun-13 19:58S 41°10' E 146°56'0 0.0
2018-Jun-13 19:28S 41°10' E 146°56'0 0.0
2018-Jun-13 19:01S 41°10' E 146°56'0 0.0
2018-Jun-13 18:28S 41°10' E 146°56'0 0.0
2018-Jun-13 18:00S 41°10' E 146°56'0 0.0
2018-Jun-13 17:27S 41°10' E 146°56'0 0.0
2018-Jun-13 17:00S 41°10' E 146°56'0 0.0
2018-Jun-13 16:27S 41°10' E 146°56'0 0.0
2018-Jun-13 15:57S 41°10' E 146°56'0 0.0
2018-Jun-13 15:30S 41°10' E 146°56'0 0.0
2018-Jun-13 14:57S 41°10' E 146°56'0 0.0
2018-Jun-13 14:27S 41°10' E 146°56'0 0.0
2018-Jun-13 13:45S 41°10' E 146°56'0 0.0
2018-Jun-13 13:27S 41°10' E 146°56'0 0.0
2018-Jun-13 13:00S 41°10' E 146°56'0 0.0
2018-Jun-13 12:30S 41°10' E 146°56'0 0.1
2018-Jun-13 12:00S 41°10' E 146°56'0 0.0
2018-Jun-13 11:30S 41°10' E 146°56'0 0.0
2018-Jun-13 11:00S 41°10' E 146°56'0 0.0
2018-Jun-13 10:30S 41°10' E 146°56'0 0.0
2018-Jun-13 10:00S 41°10' E 146°56'0 0.0
2018-Jun-13 09:30S 41°10' E 146°56'0 0.0
2018-Jun-13 09:00S 41°10' E 146°56'0 0.0
2018-Jun-13 08:30S 41°10' E 146°56'0 0.0
2018-Jun-13 08:00S 41°10' E 146°56'0 0.0
2018-Jun-13 07:30S 41°10' E 146°56'0 0.0
2018-Jun-13 07:00S 41°10' E 146°56'0 0.0
2018-Jun-13 06:30S 41°10' E 146°56'0 0.0
2018-Jun-13 06:00S 41°10' E 146°56'0 0.0
2018-Jun-13 05:30S 41°10' E 146°56'0 0.0
2018-Jun-13 05:00S 41°10' E 146°56'0 0.0
2018-Jun-13 04:30S 41°10' E 146°56'0 0.0
2018-Jun-13 04:00S 41°10' E 146°56'0 0.0
2018-Jun-13 03:27S 41°10' E 146°56'0 0.0
2018-Jun-13 03:00S 41°10' E 146°56'0 0.0
2018-Jun-13 02:27S 41°10' E 146°56'0 0.0
2018-Jun-13 02:00S 41°10' E 146°56'0 0.0
2018-Jun-13 01:30S 41°10' E 146°56'0 0.0
2018-Jun-13 01:00S 41°10' E 146°56'0 0.0
2018-Jun-13 00:30S 41°10' E 146°56'0 0.0
2018-Jun-13 00:00S 41°10' E 146°56'0 0.1
2018-Jun-12 23:30S 41°10' E 146°56'0 0.0
2018-Jun-12 22:57S 41°10' E 146°56'0 0.0
2018-Jun-12 22:30S 41°10' E 146°56'0 0.0
2018-Jun-12 22:00S 41°10' E 146°56'0 0.0
2018-Jun-12 21:30S 41°10' E 146°56'0 0.0
2018-Jun-12 21:00S 41°10' E 146°56'0 0.0
2018-Jun-12 20:27S 41°10' E 146°56'0 0.0
2018-Jun-12 20:00S 41°10' E 146°56'0 0.0
2018-Jun-12 19:27S 41°10' E 146°56'0 0.0
2018-Jun-12 18:57S 41°10' E 146°56'0 0.0
2018-Jun-12 18:30S 41°10' E 146°56'0 0.0
2018-Jun-12 17:57S 41°10' E 146°56'0 0.0
2018-Jun-12 17:30S 41°10' E 146°56'0 0.0
2018-Jun-12 16:57S 41°10' E 146°56'0 0.0
2018-Jun-12 16:30S 41°10' E 146°56'0 0.0
2018-Jun-12 16:00S 41°10' E 146°56'0 0.0
2018-Jun-12 15:30S 41°10' E 146°56'0 0.0
2018-Jun-12 15:00S 41°10' E 146°56'0 0.0
2018-Jun-12 14:30S 41°10' E 146°56'0 0.0
2018-Jun-12 13:57S 41°10' E 146°56'0 0.0
2018-Jun-12 13:30S 41°10' E 146°56'0 0.0
2018-Jun-12 12:57S 41°10' E 146°56'0 0.0
2018-Jun-12 12:30S 41°10' E 146°56'0 0.0
2018-Jun-12 12:00S 41°10' E 146°56'0 0.1
2018-Jun-12 11:30S 41°10' E 146°56'0 0.0
2018-Jun-12 11:00S 41°10' E 146°56'0 0.0
2018-Jun-12 10:30S 41°10' E 146°56'0 0.0
2018-Jun-12 10:00S 41°10' E 146°56'0 0.0
2018-Jun-12 09:30S 41°10' E 146°56'0 0.0
2018-Jun-12 09:00S 41°10' E 146°56'0 0.0
2018-Jun-12 08:30S 41°10' E 146°56'0 0.0
2018-Jun-12 08:00S 41°10' E 146°56'0 0.0
2018-Jun-12 07:30S 41°10' E 146°56'0 0.0
2018-Jun-12 07:00S 41°10' E 146°56'0 0.0
2018-Jun-12 06:30S 41°10' E 146°56'0 0.0
2018-Jun-12 06:00S 41°10' E 146°56'0 0.0
2018-Jun-12 05:30S 41°10' E 146°56'0 0.0
2018-Jun-12 05:00S 41°10' E 146°56'0 0.0
2018-Jun-12 04:30S 41°10' E 146°56'0 0.0
2018-Jun-12 04:00S 41°10' E 146°56'0 0.0
2018-Jun-12 03:30S 41°10' E 146°56'0 0.0
2018-Jun-12 03:00S 41°10' E 146°56'0 0.0
2018-Jun-12 02:30S 41°10' E 146°56'0 0.0
2018-Jun-12 02:00S 41°10' E 146°56'0 0.0
2018-Jun-12 01:30S 41°10' E 146°56'0 0.0
2018-Jun-12 01:00S 41°10' E 146°56'0 0.0
2018-Jun-12 00:30S 41°10' E 146°56'0 0.0
2018-Jun-12 00:00S 41°10' E 146°56'0 0.0
2018-Jun-11 23:30S 41°10' E 146°56'0 0.0
2018-Jun-11 23:00S 41°10' E 146°56'0 0.0
2018-Jun-11 22:30S 41°10' E 146°56'0 0.0
2018-Jun-11 22:00S 41°10' E 146°56'0 0.0
2018-Jun-11 21:30S 41°10' E 146°56'0 0.0
2018-Jun-11 21:00S 41°10' E 146°56'0 0.0
2018-Jun-11 20:30S 41°10' E 146°56'0 0.4
2018-Jun-11 20:00S 41°10' E 146°56'3 6.2
2018-Jun-11 19:30S 41°08' E 146°52'4 8.9
2018-Jun-11 19:00S 41°05' E 146°48'510.6
2018-Jun-11 18:30S 41°01' E 146°44'5 9.6
2018-Jun-11 18:00S 40°56' E 146°43'510.6
2018-Jun-11 17:30S 40°51' E 146°42'612.0
2018-Jun-11 17:00S 40°45' E 146°41'612.0
2018-Jun-11 16:30S 40°39' E 146°40'612.1
2018-Jun-11 16:00S 40°33' E 146°38'612.4
2018-Jun-11 15:30S 40°27' E 146°37'611.6
2018-Jun-11 15:00S 40°21' E 146°35'611.1
2018-Jun-11 14:30S 40°16' E 146°34'611.2
2018-Jun-11 14:00S 40°10' E 146°34'611.2
2018-Jun-11 13:30S 40°04' E 146°33'611.1
2018-Jun-11 13:00S 39°59' E 146°33'8 7.2
2018-Jun-11 11:49S 39°55' E 146°42'3 9.6
2018-Jun-11 11:30S 39°54' E 146°46'6 9.6
2018-Jun-11 10:51S 39°54' E 146°54'7 9.8
2018-Jun-11 10:08S 39°54' E 147°04'1 8.7
2018-Jun-11 10:00S 39°54' E 147°05'10911.8
2018-Jun-11 00:44S 38°35' E 148°43'312.4
2018-Jun-11 00:30S 38°33' E 148°46'812.4
2018-Jun-10 23:52S 38°28' E 148°53'512.2
2018-Jun-10 23:29S 38°25' E 148°57'612.3
2018-Jun-10 23:00S 38°20' E 149°03'612.3
2018-Jun-10 22:29S 38°16' E 149°09'612.6
2018-Jun-10 22:00S 38°11' E 149°14'1512.7
2018-Jun-10 20:51S 38°01' E 149°28'24611.6
2018-Jun-09 23:35S 34°14' E 151°24'112.2
2018-Jun-09 23:30S 34°13' E 151°25'611.8
2018-Jun-09 23:00S 34°08' E 151°27'611.6
2018-Jun-09 22:30S 34°02' E 151°30'611.5
2018-Jun-09 22:00S 33°57' E 151°32'611.7
2018-Jun-09 21:30S 33°51' E 151°35'612.2
2018-Jun-09 21:00S 33°46' E 151°38'612.4
2018-Jun-09 20:30S 33°41' E 151°42'612.2
2018-Jun-09 20:00S 33°36' E 151°46'612.5
2018-Jun-09 19:30S 33°30' E 151°50'1712.4
2018-Jun-09 18:06S 33°16' E 152°01'112.5
2018-Jun-09 18:00S 33°15' E 152°02'612.4
2018-Jun-09 17:30S 33°10' E 152°06'612.4
2018-Jun-09 17:00S 33°04' E 152°10'612.4
2018-Jun-09 16:30S 32°59' E 152°14'611.4
2018-Jun-09 16:00S 32°54' E 152°17'1111.3
2018-Jun-09 15:00S 32°45' E 152°25'611.7
2018-Jun-09 14:30S 32°40' E 152°28'611.8
2018-Jun-09 14:00S 32°35' E 152°32'611.7
2018-Jun-09 13:30S 32°30' E 152°36'611.6
2018-Jun-09 13:00S 32°25' E 152°40'711.7
2018-Jun-09 12:23S 32°18' E 152°43'411.9
2018-Jun-09 12:00S 32°14' E 152°45'712.0
2018-Jun-09 11:25S 32°07' E 152°47'  

Dump ship's entire track history